Detalii statie ERDEI ROBERT [00001D0F]

Toti senzorii

Date Temperatura solului [C]Precipitatii [mm]Voltaj baterie [mV]Leaf Wetness [Min]HC Air temperature [C]HC Relative humidity [%]Punctul de roua [C]
medieminmaxsumaultimatimpmedieminmaxmediemediemin
2019-08-15 19:00:00 0 6806 21.23 20.43 21.96 0 0 0
2019-08-15 20:00:00 0 6708 19.4 18.72 20.44 0 0 0
2019-08-15 21:00:00 0 6688 16.92 14.93 18.58 0 0 0
2019-08-15 22:00:00 0 6688 14.15 13.17 15 0 0 0
2019-08-15 23:00:00 0 6678 13.02 12.52 13.56 0 0 0
2019-08-16 00:00:00 0 6668 12.61 11.95 13.49 0 0 0
2019-08-16 01:00:00 0 6678 12.17 11.66 13.03 0 0 0
2019-08-16 02:00:00 0 6660 11.34 10.72 11.85 0 0 0
2019-08-16 03:00:00 0 6660 10.62 9.69 11.29 0 0 0
2019-08-16 04:00:00 0 6668 10.1 9.61 10.47 0 0 0
2019-08-16 05:00:00 0 6660 10.13 9.84 10.6 0 0 0
2019-08-16 06:00:00 0 6660 9.76 9.14 10.58 0 0 0
2019-08-16 07:00:00 0 6962 11.38 10.71 12.64 0 0 0
2019-08-16 08:00:00 0 7158 14.94 13.26 16.83 0 0 0
2019-08-16 09:00:00 0 7158 19.03 17.11 20.99 0 0 0
2019-08-16 10:00:00 0 7158 22.74 21.4 24.38 0 0 0
2019-08-16 11:00:00 0 7148 25.33 23.97 26.21 0 0 0
2019-08-16 12:00:00 0 7148 26.58 25.65 27.16 0 0 0
2019-08-16 13:00:00 0 7148 27.5 25.39 28.91 0 0 0
2019-08-16 14:00:00 0 7148 27 24.66 29 0 0 0
2019-08-16 15:00:00 0 7118 26.69 25.3 28.04 0 0 0
2019-08-16 16:00:00 0 7118 26.93 25.62 28.06 0 0 0
2019-08-16 17:00:00 0 7108 25.9 24.82 26.99 0 0 0
2019-08-16 18:00:00 0 7098 25.56 24.12 26.99 0 0 0
2019-08-16 19:00:00 0 6786 25.42 23.12 26.93 0 0 0
2019-08-16 20:00:00 0 6698 20.53 18.81 22.67 0 0 0
2019-08-16 21:00:00 0 6678 18.57 18.22 18.96 0 0 0
2019-08-16 22:00:00 0 6688 17.91 17.43 18.48 0 0 0
2019-08-16 23:00:00 0 6678 17.32 16.72 18.04 0 0 0
2019-08-17 00:00:00 0 6678 15.28 14.46 16.25 0 0 0
2019-08-17 01:00:00 0 6678 14.72 14.22 15.07 0 0 0
2019-08-17 02:00:00 0 6660 14.17 13.93 14.61 0 0 0
2019-08-17 03:00:00 0 6668 13.61 13.45 13.99 0 0 0
2019-08-17 04:00:00 0 6660 12.91 12.21 13.5 0 0 0
2019-08-17 05:00:00 0 6660 12.19 12.03 12.34 0 0 0
2019-08-17 06:00:00 0 6660 11.68 11.4 12.04 0 0 0
2019-08-17 07:00:00 0 6786 13.1 12.17 14.37 0 0 0
2019-08-17 08:00:00 0 6884 15.47 14.58 16.72 0 0 0
2019-08-17 09:00:00 0 7158 18.56 17.15 20.89 0 0 0
2019-08-17 10:00:00 0 7148 23.45 20.75 24.8 0 0 0
2019-08-17 11:00:00 0 7148 26.43 24.9 27.7 0 0 0
2019-08-17 12:00:00 0 7158 26.66 24.57 28.31 0 0 0
2019-08-17 13:00:00 0 7118 27.96 26.33 29.69 0 0 0
2019-08-17 14:00:00 0 7118 26.11 25.63 26.54 0 0 0
2019-08-17 15:00:00 0 7108 27.23 26.08 30.04 0 0 0
2019-08-17 16:00:00 0 7118 26.97 26.08 28.37 0 0 0
2019-08-17 17:00:00 0 7098 28.19 26.41 28.96 0 0 0
2019-08-17 18:00:00 0 7098 27.51 26.32 28.81 0 0 0